sensor_id;sensor_type;location;lat;lon;timestamp;P1;durP1;ratioP1;P2;durP2;ratioP2
1759;SDS011;877;46.266;20.062;2023-04-24T00:02:12;13.50;;;11.30;;
1759;SDS011;877;46.266;20.062;2023-04-24T00:04:41;14.50;;;11.43;;
1759;SDS011;877;46.266;20.062;2023-04-24T00:07:15;16.80;;;12.43;;
1759;SDS011;877;46.266;20.062;2023-04-24T00:09:43;14.63;;;10.70;;
1759;SDS011;877;46.266;20.062;2023-04-24T00:12:11;15.40;;;11.43;;
1759;SDS011;877;46.266;20.062;2023-04-24T00:14:37;15.00;;;11.77;;
1759;SDS011;877;46.266;20.062;2023-04-24T00:17:09;14.03;;;10.33;;
1759;SDS011;877;46.266;20.062;2023-04-24T00:19:36;19.50;;;12.87;;
1759;SDS011;877;46.266;20.062;2023-04-24T00:22:04;20.17;;;12.90;;
1759;SDS011;877;46.266;20.062;2023-04-24T00:24:30;16.23;;;11.50;;
1759;SDS011;877;46.266;20.062;2023-04-24T00:26:57;15.80;;;12.27;;
1759;SDS011;877;46.266;20.062;2023-04-24T00:29:23;15.10;;;10.80;;
1759;SDS011;877;46.266;20.062;2023-04-24T00:31:49;14.17;;;10.33;;
1759;SDS011;877;46.266;20.062;2023-04-24T00:34:17;20.20;;;11.77;;
1759;SDS011;877;46.266;20.062;2023-04-24T00:39:19;15.00;;;11.37;;
1759;SDS011;877;46.266;20.062;2023-04-24T00:44:19;14.83;;;11.40;;
1759;SDS011;877;46.266;20.062;2023-04-24T00:46:47;15.70;;;10.77;;
1759;SDS011;877;46.266;20.062;2023-04-24T00:49:23;14.80;;;11.17;;
1759;SDS011;877;46.266;20.062;2023-04-24T00:52:00;16.97;;;10.30;;
1759;SDS011;877;46.266;20.062;2023-04-24T00:54:34;15.47;;;10.13;;
1759;SDS011;877;46.266;20.062;2023-04-24T00:57:01;13.30;;;9.83;;
1759;SDS011;877;46.266;20.062;2023-04-24T00:59:28;12.93;;;10.07;;
1759;SDS011;877;46.266;20.062;2023-04-24T01:01:54;12.40;;;9.10;;
1759;SDS011;877;46.266;20.062;2023-04-24T01:04:21;12.13;;;9.60;;
1759;SDS011;877;46.266;20.062;2023-04-24T01:06:47;12.70;;;10.30;;
1759;SDS011;877;46.266;20.062;2023-04-24T01:09:14;14.77;;;9.97;;
1759;SDS011;877;46.266;20.062;2023-04-24T01:11:41;12.30;;;9.27;;
1759;SDS011;877;46.266;20.062;2023-04-24T01:14:09;15.00;;;11.30;;
1759;SDS011;877;46.266;20.062;2023-04-24T01:16:35;14.50;;;10.43;;
1759;SDS011;877;46.266;20.062;2023-04-24T01:19:03;12.60;;;9.60;;
1759;SDS011;877;46.266;20.062;2023-04-24T01:24:10;12.33;;;9.97;;
1759;SDS011;877;46.266;20.062;2023-04-24T01:26:37;12.70;;;8.90;;
1759;SDS011;877;46.266;20.062;2023-04-24T01:29:16;11.60;;;9.20;;
1759;SDS011;877;46.266;20.062;2023-04-24T01:31:43;13.87;;;9.20;;
1759;SDS011;877;46.266;20.062;2023-04-24T01:34:09;10.87;;;8.83;;
1759;SDS011;877;46.266;20.062;2023-04-24T01:36:35;12.03;;;9.70;;
1759;SDS011;877;46.266;20.062;2023-04-24T01:39:03;12.87;;;9.90;;
1759;SDS011;877;46.266;20.062;2023-04-24T01:44:12;11.67;;;8.73;;
1759;SDS011;877;46.266;20.062;2023-04-24T01:46:40;10.20;;;8.10;;
1759;SDS011;877;46.266;20.062;2023-04-24T01:49:08;15.80;;;10.07;;
1759;SDS011;877;46.266;20.062;2023-04-24T01:51:34;10.33;;;9.00;;
1759;SDS011;877;46.266;20.062;2023-04-24T01:54:00;11.17;;;9.40;;
1759;SDS011;877;46.266;20.062;2023-04-24T01:56:30;11.93;;;9.07;;
1759;SDS011;877;46.266;20.062;2023-04-24T01:59:12;11.73;;;9.60;;
1759;SDS011;877;46.266;20.062;2023-04-24T02:01:39;11.30;;;9.50;;
1759;SDS011;877;46.266;20.062;2023-04-24T02:04:05;12.40;;;9.57;;
1759;SDS011;877;46.266;20.062;2023-04-24T02:06:32;13.03;;;10.60;;
1759;SDS011;877;46.266;20.062;2023-04-24T02:09:05;13.87;;;9.40;;
1759;SDS011;877;46.266;20.062;2023-04-24T02:11:43;10.40;;;9.40;;
1759;SDS011;877;46.266;20.062;2023-04-24T02:14:18;12.80;;;9.90;;
1759;SDS011;877;46.266;20.062;2023-04-24T02:16:44;14.07;;;9.80;;
1759;SDS011;877;46.266;20.062;2023-04-24T02:19:11;15.30;;;9.80;;
1759;SDS011;877;46.266;20.062;2023-04-24T02:21:38;15.57;;;9.90;;
1759;SDS011;877;46.266;20.062;2023-04-24T02:24:04;12.10;;;10.27;;
1759;SDS011;877;46.266;20.062;2023-04-24T02:26:32;16.60;;;10.60;;
1759;SDS011;877;46.266;20.062;2023-04-24T02:29:01;11.10;;;9.37;;
1759;SDS011;877;46.266;20.062;2023-04-24T02:31:33;12.87;;;10.00;;
1759;SDS011;877;46.266;20.062;2023-04-24T02:34:08;14.67;;;11.67;;
1759;SDS011;877;46.266;20.062;2023-04-24T02:36:35;12.80;;;10.80;;
1759;SDS011;877;46.266;20.062;2023-04-24T02:39:01;13.13;;;10.80;;
1759;SDS011;877;46.266;20.062;2023-04-24T02:41:30;13.53;;;11.10;;
1759;SDS011;877;46.266;20.062;2023-04-24T02:43:58;11.53;;;10.23;;
1759;SDS011;877;46.266;20.062;2023-04-24T02:46:26;11.30;;;10.10;;
1759;SDS011;877;46.266;20.062;2023-04-24T02:48:53;11.97;;;9.80;;
1759;SDS011;877;46.266;20.062;2023-04-24T02:51:19;16.73;;;10.77;;
1759;SDS011;877;46.266;20.062;2023-04-24T02:53:53;15.73;;;11.17;;
1759;SDS011;877;46.266;20.062;2023-04-24T02:56:30;14.10;;;10.23;;
1759;SDS011;877;46.266;20.062;2023-04-24T02:58:57;12.30;;;10.70;;
1759;SDS011;877;46.266;20.062;2023-04-24T03:01:26;13.43;;;10.30;;
1759;SDS011;877;46.266;20.062;2023-04-24T03:03:52;12.30;;;9.80;;
1759;SDS011;877;46.266;20.062;2023-04-24T03:08:55;12.90;;;11.00;;
1759;SDS011;877;46.266;20.062;2023-04-24T03:13:53;15.37;;;10.87;;
1759;SDS011;877;46.266;20.062;2023-04-24T03:16:26;12.70;;;11.40;;
1759;SDS011;877;46.266;20.062;2023-04-24T03:18:53;14.90;;;11.00;;
1759;SDS011;877;46.266;20.062;2023-04-24T03:21:21;13.30;;;10.67;;
1759;SDS011;877;46.266;20.062;2023-04-24T03:24:03;12.70;;;11.03;;
1759;SDS011;877;46.266;20.062;2023-04-24T03:26:36;16.73;;;11.50;;
1759;SDS011;877;46.266;20.062;2023-04-24T03:29:03;15.70;;;11.20;;
1759;SDS011;877;46.266;20.062;2023-04-24T03:31:30;15.03;;;11.73;;
1759;SDS011;877;46.266;20.062;2023-04-24T03:33:56;13.07;;;11.23;;
1759;SDS011;877;46.266;20.062;2023-04-24T03:36:23;14.17;;;11.70;;
1759;SDS011;877;46.266;20.062;2023-04-24T03:38:58;16.57;;;12.07;;
1759;SDS011;877;46.266;20.062;2023-04-24T03:41:25;14.60;;;11.57;;
1759;SDS011;877;46.266;20.062;2023-04-24T03:43:59;15.50;;;11.73;;
1759;SDS011;877;46.266;20.062;2023-04-24T03:46:25;13.07;;;11.13;;
1759;SDS011;877;46.266;20.062;2023-04-24T03:48:52;15.40;;;11.47;;
1759;SDS011;877;46.266;20.062;2023-04-24T03:51:19;14.73;;;11.33;;
1759;SDS011;877;46.266;20.062;2023-04-24T03:53:45;14.60;;;10.97;;
1759;SDS011;877;46.266;20.062;2023-04-24T03:56:12;16.00;;;12.30;;
1759;SDS011;877;46.266;20.062;2023-04-24T03:58:39;15.33;;;11.93;;
1759;SDS011;877;46.266;20.062;2023-04-24T04:01:06;14.80;;;10.73;;
1759;SDS011;877;46.266;20.062;2023-04-24T04:03:38;14.70;;;11.90;;
1759;SDS011;877;46.266;20.062;2023-04-24T04:06:06;38.57;;;11.40;;
1759;SDS011;877;46.266;20.062;2023-04-24T04:11:04;14.10;;;12.60;;
1759;SDS011;877;46.266;20.062;2023-04-24T04:16:04;13.63;;;11.20;;
1759;SDS011;877;46.266;20.062;2023-04-24T04:18:31;13.47;;;11.83;;
1759;SDS011;877;46.266;20.062;2023-04-24T04:20:59;15.17;;;11.10;;
1759;SDS011;877;46.266;20.062;2023-04-24T04:23:29;15.57;;;13.20;;
1759;SDS011;877;46.266;20.062;2023-04-24T04:28:25;14.13;;;11.90;;
1759;SDS011;877;46.266;20.062;2023-04-24T04:30:51;15.17;;;12.40;;
1759;SDS011;877;46.266;20.062;2023-04-24T04:33:21;14.17;;;11.87;;
1759;SDS011;877;46.266;20.062;2023-04-24T04:35:49;21.93;;;11.20;;
1759;SDS011;877;46.266;20.062;2023-04-24T04:38:19;16.23;;;11.50;;
1759;SDS011;877;46.266;20.062;2023-04-24T04:40:46;15.00;;;12.10;;
1759;SDS011;877;46.266;20.062;2023-04-24T04:43:12;13.63;;;12.17;;
1759;SDS011;877;46.266;20.062;2023-04-24T04:45:40;15.07;;;11.90;;
1759;SDS011;877;46.266;20.062;2023-04-24T04:48:08;14.47;;;11.00;;
1759;SDS011;877;46.266;20.062;2023-04-24T04:50:41;20.47;;;12.90;;
1759;SDS011;877;46.266;20.062;2023-04-24T04:53:07;16.00;;;11.23;;
1759;SDS011;877;46.266;20.062;2023-04-24T04:55:35;15.00;;;11.60;;
1759;SDS011;877;46.266;20.062;2023-04-24T04:58:02;15.90;;;11.77;;
1759;SDS011;877;46.266;20.062;2023-04-24T05:00:29;14.40;;;11.73;;
1759;SDS011;877;46.266;20.062;2023-04-24T05:03:01;19.17;;;12.17;;
1759;SDS011;877;46.266;20.062;2023-04-24T05:08:24;14.27;;;12.43;;
1759;SDS011;877;46.266;20.062;2023-04-24T05:10:50;16.77;;;12.30;;
1759;SDS011;877;46.266;20.062;2023-04-24T05:13:17;14.83;;;11.60;;
1759;SDS011;877;46.266;20.062;2023-04-24T05:15:44;16.10;;;13.33;;
1759;SDS011;877;46.266;20.062;2023-04-24T05:18:23;17.73;;;13.57;;
1759;SDS011;877;46.266;20.062;2023-04-24T05:20:52;19.03;;;12.17;;
1759;SDS011;877;46.266;20.062;2023-04-24T05:23:19;14.57;;;12.70;;
1759;SDS011;877;46.266;20.062;2023-04-24T05:25:59;14.43;;;12.90;;
1759;SDS011;877;46.266;20.062;2023-04-24T05:28:26;18.20;;;13.60;;
1759;SDS011;877;46.266;20.062;2023-04-24T05:30:55;14.97;;;12.90;;
1759;SDS011;877;46.266;20.062;2023-04-24T05:33:35;14.80;;;12.80;;
1759;SDS011;877;46.266;20.062;2023-04-24T05:36:07;15.73;;;12.30;;
1759;SDS011;877;46.266;20.062;2023-04-24T05:38:38;17.17;;;11.80;;
1759;SDS011;877;46.266;20.062;2023-04-24T05:43:56;16.77;;;12.13;;
1759;SDS011;877;46.266;20.062;2023-04-24T05:46:23;14.47;;;11.63;;
1759;SDS011;877;46.266;20.062;2023-04-24T05:48:55;14.53;;;11.70;;
1759;SDS011;877;46.266;20.062;2023-04-24T05:54:15;16.07;;;12.40;;
1759;SDS011;877;46.266;20.062;2023-04-24T05:59:20;15.47;;;12.33;;
1759;SDS011;877;46.266;20.062;2023-04-24T06:01:46;15.27;;;13.20;;
1759;SDS011;877;46.266;20.062;2023-04-24T06:04:12;16.47;;;12.53;;
1759;SDS011;877;46.266;20.062;2023-04-24T06:06:41;12.80;;;10.50;;
1759;SDS011;877;46.266;20.062;2023-04-24T06:11:53;13.07;;;10.83;;
1759;SDS011;877;46.266;20.062;2023-04-24T06:14:20;15.10;;;11.90;;
1759;SDS011;877;46.266;20.062;2023-04-24T06:19:22;14.07;;;11.57;;
1759;SDS011;877;46.266;20.062;2023-04-24T06:21:52;21.50;;;12.60;;
1759;SDS011;877;46.266;20.062;2023-04-24T06:24:18;14.03;;;12.33;;
1759;SDS011;877;46.266;20.062;2023-04-24T06:26:59;16.37;;;13.93;;
1759;SDS011;877;46.266;20.062;2023-04-24T06:29:33;15.97;;;13.00;;
1759;SDS011;877;46.266;20.062;2023-04-24T06:32:01;19.30;;;15.63;;
1759;SDS011;877;46.266;20.062;2023-04-24T06:34:32;17.20;;;14.97;;
1759;SDS011;877;46.266;20.062;2023-04-24T06:36:59;19.27;;;16.10;;
1759;SDS011;877;46.266;20.062;2023-04-24T06:39:31;20.40;;;16.67;;
1759;SDS011;877;46.266;20.062;2023-04-24T06:42:04;20.50;;;16.37;;
1759;SDS011;877;46.266;20.062;2023-04-24T06:47:02;18.03;;;14.30;;
1759;SDS011;877;46.266;20.062;2023-04-24T06:49:31;22.30;;;15.90;;
1759;SDS011;877;46.266;20.062;2023-04-24T06:51:58;19.07;;;16.73;;
1759;SDS011;877;46.266;20.062;2023-04-24T06:54:32;23.07;;;17.67;;
1759;SDS011;877;46.266;20.062;2023-04-24T06:56:59;18.63;;;16.07;;
1759;SDS011;877;46.266;20.062;2023-04-24T06:59:29;20.07;;;17.90;;
1759;SDS011;877;46.266;20.062;2023-04-24T07:02:02;18.80;;;16.70;;
1759;SDS011;877;46.266;20.062;2023-04-24T07:04:29;19.47;;;16.03;;
1759;SDS011;877;46.266;20.062;2023-04-24T07:07:03;21.33;;;16.30;;
1759;SDS011;877;46.266;20.062;2023-04-24T07:09:37;25.00;;;15.50;;
1759;SDS011;877;46.266;20.062;2023-04-24T07:12:07;20.00;;;17.20;;
1759;SDS011;877;46.266;20.062;2023-04-24T07:14:35;17.30;;;15.30;;
1759;SDS011;877;46.266;20.062;2023-04-24T07:17:06;20.07;;;17.27;;
1759;SDS011;877;46.266;20.062;2023-04-24T07:19:38;21.77;;;15.50;;
1759;SDS011;877;46.266;20.062;2023-04-24T07:22:05;18.27;;;13.77;;
1759;SDS011;877;46.266;20.062;2023-04-24T07:24:32;16.97;;;14.40;;
1759;SDS011;877;46.266;20.062;2023-04-24T07:27:01;16.43;;;14.73;;
1759;SDS011;877;46.266;20.062;2023-04-24T07:29:27;16.30;;;14.53;;
1759;SDS011;877;46.266;20.062;2023-04-24T07:31:53;17.60;;;13.40;;
1759;SDS011;877;46.266;20.062;2023-04-24T07:34:21;19.73;;;15.00;;
1759;SDS011;877;46.266;20.062;2023-04-24T07:39:27;22.37;;;16.03;;
1759;SDS011;877;46.266;20.062;2023-04-24T07:41:58;18.80;;;14.93;;
1759;SDS011;877;46.266;20.062;2023-04-24T07:44:26;18.77;;;16.60;;
1759;SDS011;877;46.266;20.062;2023-04-24T07:46:59;19.77;;;17.20;;
1759;SDS011;877;46.266;20.062;2023-04-24T07:49:30;18.47;;;15.33;;
1759;SDS011;877;46.266;20.062;2023-04-24T07:52:04;20.73;;;16.67;;
1759;SDS011;877;46.266;20.062;2023-04-24T07:59:45;21.73;;;17.27;;
1759;SDS011;877;46.266;20.062;2023-04-24T08:02:19;24.43;;;18.83;;
1759;SDS011;877;46.266;20.062;2023-04-24T08:04:46;20.33;;;17.40;;
1759;SDS011;877;46.266;20.062;2023-04-24T08:07:15;23.00;;;16.87;;
1759;SDS011;877;46.266;20.062;2023-04-24T08:09:42;18.60;;;16.10;;
1759;SDS011;877;46.266;20.062;2023-04-24T08:12:08;17.23;;;15.30;;
1759;SDS011;877;46.266;20.062;2023-04-24T08:14:34;23.03;;;17.57;;
1759;SDS011;877;46.266;20.062;2023-04-24T08:17:07;18.93;;;15.37;;
1759;SDS011;877;46.266;20.062;2023-04-24T08:22:16;21.70;;;16.43;;
1759;SDS011;877;46.266;20.062;2023-04-24T08:24:44;21.90;;;15.90;;
1759;SDS011;877;46.266;20.062;2023-04-24T08:27:16;20.00;;;15.67;;
1759;SDS011;877;46.266;20.062;2023-04-24T08:29:42;17.07;;;15.20;;
1759;SDS011;877;46.266;20.062;2023-04-24T08:32:10;22.07;;;14.73;;
1759;SDS011;877;46.266;20.062;2023-04-24T08:34:37;17.40;;;15.57;;
1759;SDS011;877;46.266;20.062;2023-04-24T08:37:10;20.00;;;16.57;;
1759;SDS011;877;46.266;20.062;2023-04-24T08:39:36;23.50;;;16.67;;
1759;SDS011;877;46.266;20.062;2023-04-24T08:42:05;17.83;;;15.07;;
1759;SDS011;877;46.266;20.062;2023-04-24T08:44:35;18.60;;;14.90;;
1759;SDS011;877;46.266;20.062;2023-04-24T08:47:02;18.93;;;16.93;;
1759;SDS011;877;46.266;20.062;2023-04-24T08:49:28;17.23;;;15.43;;
1759;SDS011;877;46.266;20.062;2023-04-24T08:51:56;19.50;;;16.50;;
1759;SDS011;877;46.266;20.062;2023-04-24T08:54:22;17.37;;;15.47;;
1759;SDS011;877;46.266;20.062;2023-04-24T08:56:49;17.50;;;15.70;;
1759;SDS011;877;46.266;20.062;2023-04-24T08:59:22;16.60;;;14.50;;
1759;SDS011;877;46.266;20.062;2023-04-24T09:01:49;19.30;;;14.90;;
1759;SDS011;877;46.266;20.062;2023-04-24T09:04:18;16.47;;;14.53;;
1759;SDS011;877;46.266;20.062;2023-04-24T09:06:55;20.33;;;14.60;;
1759;SDS011;877;46.266;20.062;2023-04-24T09:09:28;19.70;;;14.27;;
1759;SDS011;877;46.266;20.062;2023-04-24T09:11:56;15.50;;;13.70;;
1759;SDS011;877;46.266;20.062;2023-04-24T09:14:23;16.20;;;12.70;;
1759;SDS011;877;46.266;20.062;2023-04-24T09:16:50;15.73;;;13.30;;
1759;SDS011;877;46.266;20.062;2023-04-24T09:19:20;16.70;;;13.30;;
1759;SDS011;877;46.266;20.062;2023-04-24T09:24:20;14.63;;;13.10;;
1759;SDS011;877;46.266;20.062;2023-04-24T09:26:58;14.40;;;11.70;;
1759;SDS011;877;46.266;20.062;2023-04-24T09:29:34;12.43;;;11.13;;
1759;SDS011;877;46.266;20.062;2023-04-24T09:32:08;13.83;;;11.80;;
1759;SDS011;877;46.266;20.062;2023-04-24T09:34:43;12.63;;;10.73;;
1759;SDS011;877;46.266;20.062;2023-04-24T09:37:26;12.93;;;11.37;;
1759;SDS011;877;46.266;20.062;2023-04-24T09:42:37;14.73;;;11.87;;
1759;SDS011;877;46.266;20.062;2023-04-24T09:45:04;16.63;;;11.87;;
1759;SDS011;877;46.266;20.062;2023-04-24T09:47:37;13.73;;;11.10;;
1759;SDS011;877;46.266;20.062;2023-04-24T09:50:19;12.97;;;10.93;;
1759;SDS011;877;46.266;20.062;2023-04-24T09:52:46;13.10;;;11.20;;
1759;SDS011;877;46.266;20.062;2023-04-24T09:55:19;13.97;;;11.67;;
1759;SDS011;877;46.266;20.062;2023-04-24T09:58:00;13.33;;;11.13;;
1759;SDS011;877;46.266;20.062;2023-04-24T10:00:33;14.27;;;10.97;;
1759;SDS011;877;46.266;20.062;2023-04-24T10:03:01;14.80;;;10.27;;
1759;SDS011;877;46.266;20.062;2023-04-24T10:05:35;11.77;;;9.83;;
1759;SDS011;877;46.266;20.062;2023-04-24T10:08:06;13.03;;;8.90;;
1759;SDS011;877;46.266;20.062;2023-04-24T10:10:42;11.60;;;9.70;;
1759;SDS011;877;46.266;20.062;2023-04-24T10:13:11;11.10;;;9.80;;
1759;SDS011;877;46.266;20.062;2023-04-24T10:23:21;13.53;;;10.80;;
1759;SDS011;877;46.266;20.062;2023-04-24T10:25:49;15.17;;;12.80;;
1759;SDS011;877;46.266;20.062;2023-04-24T10:28:18;16.90;;;11.80;;
1759;SDS011;877;46.266;20.062;2023-04-24T10:30:58;12.13;;;10.40;;
1759;SDS011;877;46.266;20.062;2023-04-24T10:33:25;11.73;;;10.57;;
1759;SDS011;877;46.266;20.062;2023-04-24T10:38:28;17.07;;;11.10;;
1759;SDS011;877;46.266;20.062;2023-04-24T10:46:05;13.77;;;11.20;;
1759;SDS011;877;46.266;20.062;2023-04-24T10:51:48;15.03;;;10.97;;
1759;SDS011;877;46.266;20.062;2023-04-24T10:54:24;11.43;;;10.13;;
1759;SDS011;877;46.266;20.062;2023-04-24T10:56:55;12.60;;;10.47;;
1759;SDS011;877;46.266;20.062;2023-04-24T10:59:40;15.00;;;10.77;;
1759;SDS011;877;46.266;20.062;2023-04-24T11:02:07;13.17;;;10.87;;
1759;SDS011;877;46.266;20.062;2023-04-24T11:07:11;11.53;;;9.40;;
1759;SDS011;877;46.266;20.062;2023-04-24T11:09:39;9.50;;;8.53;;
1759;SDS011;877;46.266;20.062;2023-04-24T11:12:11;8.90;;;7.90;;
1759;SDS011;877;46.266;20.062;2023-04-24T11:17:36;9.57;;;8.43;;
1759;SDS011;877;46.266;20.062;2023-04-24T11:22:35;10.90;;;8.87;;
1759;SDS011;877;46.266;20.062;2023-04-24T11:25:06;13.40;;;9.90;;
1759;SDS011;877;46.266;20.062;2023-04-24T11:27:42;14.73;;;10.40;;
1759;SDS011;877;46.266;20.062;2023-04-24T11:30:09;14.40;;;9.77;;
1759;SDS011;877;46.266;20.062;2023-04-24T11:32:50;10.93;;;9.70;;
1759;SDS011;877;46.266;20.062;2023-04-24T11:35:23;11.43;;;10.20;;
1759;SDS011;877;46.266;20.062;2023-04-24T11:37:53;13.67;;;10.70;;
1759;SDS011;877;46.266;20.062;2023-04-24T11:40:25;14.33;;;11.80;;
1759;SDS011;877;46.266;20.062;2023-04-24T11:48:02;13.20;;;10.77;;
1759;SDS011;877;46.266;20.062;2023-04-24T11:50:30;15.57;;;11.90;;
1759;SDS011;877;46.266;20.062;2023-04-24T11:52:56;15.70;;;13.57;;
1759;SDS011;877;46.266;20.062;2023-04-24T11:55:26;15.50;;;12.20;;
1759;SDS011;877;46.266;20.062;2023-04-24T11:57:54;15.03;;;12.77;;
1759;SDS011;877;46.266;20.062;2023-04-24T12:00:26;17.20;;;12.60;;
1759;SDS011;877;46.266;20.062;2023-04-24T12:03:09;13.00;;;11.47;;
1759;SDS011;877;46.266;20.062;2023-04-24T12:05:39;13.90;;;11.27;;
1759;SDS011;877;46.266;20.062;2023-04-24T12:08:05;18.20;;;13.43;;
1759;SDS011;877;46.266;20.062;2023-04-24T12:10:33;14.93;;;11.70;;
1759;SDS011;877;46.266;20.062;2023-04-24T12:13:04;15.20;;;11.60;;
1759;SDS011;877;46.266;20.062;2023-04-24T12:15:30;16.37;;;12.60;;
1759;SDS011;877;46.266;20.062;2023-04-24T12:17:57;15.73;;;12.80;;
1759;SDS011;877;46.266;20.062;2023-04-24T12:20:30;15.63;;;13.83;;
1759;SDS011;877;46.266;20.062;2023-04-24T12:22:59;16.17;;;13.60;;
1759;SDS011;877;46.266;20.062;2023-04-24T12:25:27;15.43;;;13.43;;
1759;SDS011;877;46.266;20.062;2023-04-24T12:28:07;18.00;;;13.93;;
1759;SDS011;877;46.266;20.062;2023-04-24T12:30:47;13.77;;;11.30;;
1759;SDS011;877;46.266;20.062;2023-04-24T12:33:19;15.50;;;13.30;;
1759;SDS011;877;46.266;20.062;2023-04-24T12:35:52;14.97;;;12.07;;
1759;SDS011;877;46.266;20.062;2023-04-24T12:44:10;14.57;;;9.57;;
1759;SDS011;877;46.266;20.062;2023-04-24T12:46:40;14.27;;;9.97;;
1759;SDS011;877;46.266;20.062;2023-04-24T12:49:07;10.27;;;9.20;;
1759;SDS011;877;46.266;20.062;2023-04-24T12:51:34;12.20;;;10.30;;
1759;SDS011;877;46.266;20.062;2023-04-24T13:02:16;14.40;;;11.43;;
1759;SDS011;877;46.266;20.062;2023-04-24T13:07:15;16.80;;;12.67;;
1759;SDS011;877;46.266;20.062;2023-04-24T13:09:43;15.37;;;12.50;;
1759;SDS011;877;46.266;20.062;2023-04-24T13:12:10;17.30;;;13.67;;
1759;SDS011;877;46.266;20.062;2023-04-24T13:17:25;17.13;;;15.40;;
1759;SDS011;877;46.266;20.062;2023-04-24T13:19:54;20.50;;;16.53;;
1759;SDS011;877;46.266;20.062;2023-04-24T13:22:20;16.60;;;14.90;;
1759;SDS011;877;46.266;20.062;2023-04-24T13:24:53;18.13;;;15.13;;
1759;SDS011;877;46.266;20.062;2023-04-24T13:27:22;14.67;;;13.00;;
1759;SDS011;877;46.266;20.062;2023-04-24T13:29:48;15.87;;;13.20;;
1759;SDS011;877;46.266;20.062;2023-04-24T13:32:14;17.13;;;14.00;;
1759;SDS011;877;46.266;20.062;2023-04-24T13:34:40;15.33;;;13.73;;
1759;SDS011;877;46.266;20.062;2023-04-24T13:37:12;14.90;;;12.73;;
1759;SDS011;877;46.266;20.062;2023-04-24T13:39:38;13.87;;;12.13;;
1759;SDS011;877;46.266;20.062;2023-04-24T13:42:04;14.13;;;12.70;;
1759;SDS011;877;46.266;20.062;2023-04-24T13:44:32;14.80;;;13.30;;
1759;SDS011;877;46.266;20.062;2023-04-24T13:46:59;16.33;;;13.40;;
1759;SDS011;877;46.266;20.062;2023-04-24T13:51:55;15.50;;;13.63;;
1759;SDS011;877;46.266;20.062;2023-04-24T13:54:22;15.23;;;13.67;;
1759;SDS011;877;46.266;20.062;2023-04-24T13:56:51;14.27;;;12.77;;
1759;SDS011;877;46.266;20.062;2023-04-24T13:59:17;15.47;;;13.67;;
1759;SDS011;877;46.266;20.062;2023-04-24T14:01:44;16.53;;;14.47;;
1759;SDS011;877;46.266;20.062;2023-04-24T14:04:12;17.90;;;14.90;;
1759;SDS011;877;46.266;20.062;2023-04-24T14:06:38;19.20;;;14.10;;
1759;SDS011;877;46.266;20.062;2023-04-24T14:09:05;17.73;;;13.63;;
1759;SDS011;877;46.266;20.062;2023-04-24T14:11:33;14.80;;;13.13;;
1759;SDS011;877;46.266;20.062;2023-04-24T14:14:02;18.20;;;11.93;;
1759;SDS011;877;46.266;20.062;2023-04-24T14:16:35;14.50;;;12.73;;
1759;SDS011;877;46.266;20.062;2023-04-24T14:19:01;13.43;;;11.50;;
1759;SDS011;877;46.266;20.062;2023-04-24T14:21:28;17.60;;;13.60;;
1759;SDS011;877;46.266;20.062;2023-04-24T14:24:01;16.87;;;13.07;;
1759;SDS011;877;46.266;20.062;2023-04-24T14:26:27;15.57;;;13.27;;
1759;SDS011;877;46.266;20.062;2023-04-24T14:29:01;14.23;;;12.77;;
1759;SDS011;877;46.266;20.062;2023-04-24T14:31:27;16.37;;;14.67;;
1759;SDS011;877;46.266;20.062;2023-04-24T14:33:53;15.40;;;13.47;;
1759;SDS011;877;46.266;20.062;2023-04-24T14:36:21;20.10;;;15.43;;
1759;SDS011;877;46.266;20.062;2023-04-24T14:38:47;16.10;;;14.50;;
1759;SDS011;877;46.266;20.062;2023-04-24T14:41:14;21.13;;;17.23;;
1759;SDS011;877;46.266;20.062;2023-04-24T14:43:41;19.40;;;15.00;;
1759;SDS011;877;46.266;20.062;2023-04-24T14:46:15;16.80;;;14.93;;
1759;SDS011;877;46.266;20.062;2023-04-24T14:48:43;23.23;;;15.07;;
1759;SDS011;877;46.266;20.062;2023-04-24T14:51:11;18.23;;;14.60;;
1759;SDS011;877;46.266;20.062;2023-04-24T14:53:39;18.57;;;16.50;;
1759;SDS011;877;46.266;20.062;2023-04-24T14:56:05;18.60;;;15.80;;
1759;SDS011;877;46.266;20.062;2023-04-24T14:58:34;18.70;;;16.73;;
1759;SDS011;877;46.266;20.062;2023-04-24T15:01:03;20.87;;;15.67;;
1759;SDS011;877;46.266;20.062;2023-04-24T15:03:33;18.40;;;16.40;;
1759;SDS011;877;46.266;20.062;2023-04-24T15:05:59;18.20;;;16.30;;
1759;SDS011;877;46.266;20.062;2023-04-24T15:08:26;22.27;;;16.40;;
1759;SDS011;877;46.266;20.062;2023-04-24T15:10:54;20.57;;;18.43;;
1759;SDS011;877;46.266;20.062;2023-04-24T15:13:21;20.97;;;16.67;;
1759;SDS011;877;46.266;20.062;2023-04-24T15:15:48;17.93;;;16.00;;
1759;SDS011;877;46.266;20.062;2023-04-24T15:18:15;18.47;;;16.50;;
1759;SDS011;877;46.266;20.062;2023-04-24T15:20:48;17.07;;;15.27;;
1759;SDS011;877;46.266;20.062;2023-04-24T15:23:14;20.23;;;15.30;;
1759;SDS011;877;46.266;20.062;2023-04-24T15:25:41;18.30;;;15.60;;
1759;SDS011;877;46.266;20.062;2023-04-24T15:28:08;21.63;;;17.07;;
1759;SDS011;877;46.266;20.062;2023-04-24T15:30:35;24.90;;;18.63;;
1759;SDS011;877;46.266;20.062;2023-04-24T15:33:05;19.40;;;17.40;;
1759;SDS011;877;46.266;20.062;2023-04-24T15:35:33;18.30;;;16.27;;
1759;SDS011;877;46.266;20.062;2023-04-24T15:38:03;19.37;;;17.47;;
1759;SDS011;877;46.266;20.062;2023-04-24T15:40:31;20.13;;;17.97;;
1759;SDS011;877;46.266;20.062;2023-04-24T15:42:57;22.00;;;18.03;;
1759;SDS011;877;46.266;20.062;2023-04-24T15:45:24;24.53;;;19.93;;
1759;SDS011;877;46.266;20.062;2023-04-24T15:47:57;22.33;;;19.90;;
1759;SDS011;877;46.266;20.062;2023-04-24T15:50:23;23.00;;;20.27;;
1759;SDS011;877;46.266;20.062;2023-04-24T15:52:50;22.80;;;18.47;;
1759;SDS011;877;46.266;20.062;2023-04-24T15:55:16;22.67;;;20.17;;
1759;SDS011;877;46.266;20.062;2023-04-24T15:57:42;20.93;;;18.80;;
1759;SDS011;877;46.266;20.062;2023-04-24T16:00:09;22.73;;;20.30;;
1759;SDS011;877;46.266;20.062;2023-04-24T16:02:36;21.03;;;18.83;;
1759;SDS011;877;46.266;20.062;2023-04-24T16:05:06;23.30;;;20.50;;
1759;SDS011;877;46.266;20.062;2023-04-24T16:07:43;21.57;;;19.47;;
1759;SDS011;877;46.266;20.062;2023-04-24T16:10:11;23.73;;;20.23;;
1759;SDS011;877;46.266;20.062;2023-04-24T16:12:38;28.23;;;23.03;;
1759;SDS011;877;46.266;20.062;2023-04-24T16:15:08;33.73;;;26.50;;
1759;SDS011;877;46.266;20.062;2023-04-24T16:17:35;32.47;;;24.43;;
1759;SDS011;877;46.266;20.062;2023-04-24T16:20:09;32.13;;;24.13;;
1759;SDS011;877;46.266;20.062;2023-04-24T16:22:37;30.03;;;21.67;;
1759;SDS011;877;46.266;20.062;2023-04-24T16:27:43;23.67;;;21.10;;
1759;SDS011;877;46.266;20.062;2023-04-24T16:30:17;23.50;;;20.90;;
1759;SDS011;877;46.266;20.062;2023-04-24T16:32:45;25.23;;;22.53;;
1759;SDS011;877;46.266;20.062;2023-04-24T16:35:12;24.77;;;22.17;;
1759;SDS011;877;46.266;20.062;2023-04-24T16:37:38;27.53;;;23.00;;
1759;SDS011;877;46.266;20.062;2023-04-24T16:40:06;24.17;;;21.07;;
1759;SDS011;877;46.266;20.062;2023-04-24T16:42:38;26.30;;;21.47;;
1759;SDS011;877;46.266;20.062;2023-04-24T16:45:06;23.53;;;21.03;;
1759;SDS011;877;46.266;20.062;2023-04-24T16:47:34;24.43;;;20.50;;
1759;SDS011;877;46.266;20.062;2023-04-24T16:50:03;23.17;;;18.43;;
1759;SDS011;877;46.266;20.062;2023-04-24T16:52:29;22.53;;;19.67;;
1759;SDS011;877;46.266;20.062;2023-04-24T16:54:57;21.10;;;18.90;;
1759;SDS011;877;46.266;20.062;2023-04-24T16:57:25;20.43;;;17.67;;